createdAt,value
2019-01-29T00:03:48.516Z,98961.02
2019-01-29T00:08:55.177Z,98968.92
2019-01-29T00:14:02.069Z,98977.30
2019-01-29T00:19:08.760Z,98983.73
2019-01-29T00:24:15.674Z,98985.36
2019-01-29T00:29:23.633Z,99002.45
2019-01-29T00:34:32.161Z,99007.61
2019-01-29T00:39:40.421Z,99009.09
2019-01-29T00:44:48.329Z,99015.13
2019-01-29T00:49:55.070Z,99020.07
2019-01-29T00:55:01.581Z,99026.72
2019-01-29T01:00:13.945Z,99040.63
2019-01-29T01:05:20.433Z,99054.98
2019-01-29T01:10:28.294Z,99070.18
2019-01-29T01:15:36.559Z,99079.91
2019-01-29T01:20:43.533Z,99087.34
2019-01-29T01:25:51.305Z,99099.61
2019-01-29T01:30:58.401Z,99103.84
2019-01-29T01:36:07.205Z,99102.28
2019-01-29T01:41:14.077Z,99113.77
2019-01-29T01:46:22.193Z,99119.08
2019-01-29T01:51:29.063Z,99122.17
2019-01-29T01:56:35.858Z,99135.87
2019-01-29T02:01:43.453Z,99145.03
2019-01-29T02:06:50.739Z,99160.94
2019-01-29T02:11:57.379Z,99171.19
2019-01-29T02:17:05.607Z,99175.23
2019-01-29T02:22:11.929Z,99181.84
2019-01-29T02:27:20.505Z,99212.48
2019-01-29T02:32:28.532Z,99210.53
2019-01-29T02:37:38.033Z,99230.45
2019-01-29T02:42:44.578Z,99227.72
2019-01-29T02:47:51.478Z,99229.83
2019-01-29T02:52:58.258Z,99255.09
2019-01-29T02:58:05.011Z,99252.88
2019-01-29T03:03:13.567Z,99261.50
2019-01-29T03:08:20.295Z,99274.87
2019-01-29T03:13:28.307Z,99288.66
2019-01-29T03:18:36.088Z,99289.42
2019-01-29T03:23:42.548Z,99305.42
2019-01-29T03:28:50.300Z,99314.22
2019-01-29T03:33:56.842Z,99316.41
2019-01-29T03:39:04.891Z,99336.66
2019-01-29T03:44:12.773Z,99337.91
2019-01-29T03:49:19.194Z,99339.92
2019-01-29T03:54:28.441Z,99356.78
2019-01-29T03:59:39.146Z,99359.05
2019-01-29T04:04:46.709Z,99365.33
2019-01-29T04:09:53.987Z,99374.59
2019-01-29T04:15:02.144Z,99388.31
2019-01-29T04:20:13.065Z,99390.39
2019-01-29T04:25:20.984Z,99413.16
2019-01-29T04:30:28.682Z,99415.02
2019-01-29T04:35:36.801Z,99425.54
2019-01-29T04:40:47.983Z,99441.59
2019-01-29T04:45:56.435Z,99432.80
2019-01-29T04:51:03.555Z,99434.57
2019-01-29T04:56:11.347Z,99450.59
2019-01-29T05:01:19.502Z,99461.38
2019-01-29T05:06:26.799Z,99460.20
2019-01-29T05:11:34.446Z,99455.86
2019-01-29T05:16:42.785Z,99468.94
2019-01-29T05:21:52.543Z,99475.84
2019-01-29T05:27:00.790Z,99485.88
2019-01-29T05:32:08.234Z,99493.00
2019-01-29T05:37:15.935Z,99503.67
2019-01-29T05:42:23.944Z,99502.06
2019-01-29T05:47:31.107Z,99519.20
2019-01-29T05:52:38.825Z,99514.21
2019-01-29T05:57:49.169Z,99523.36
2019-01-29T06:02:57.467Z,99531.77
2019-01-29T06:08:08.201Z,99542.41
2019-01-29T06:13:17.845Z,99546.28
2019-01-29T06:18:26.912Z,99557.81
2019-01-29T06:23:33.713Z,99564.40
2019-01-29T06:28:42.446Z,99571.46
2019-01-29T06:33:50.484Z,99595.26
2019-01-29T06:38:58.037Z,99616.23
2019-01-29T06:44:05.012Z,99608.48
2019-01-29T06:49:13.654Z,99625.16
2019-01-29T06:54:22.900Z,99625.42
2019-01-29T06:59:31.494Z,99627.84
2019-01-29T07:04:39.665Z,99642.05
2019-01-29T07:09:48.019Z,99650.61
2019-01-29T07:14:55.264Z,99654.33
2019-01-29T07:20:03.634Z,99654.44
2019-01-29T07:25:12.091Z,99662.42
2019-01-29T07:30:20.045Z,99665.88
2019-01-29T07:35:27.312Z,99666.88
2019-01-29T07:40:35.571Z,99677.65
2019-01-29T07:45:42.558Z,99674.78
2019-01-29T07:50:50.146Z,99676.86
2019-01-29T07:56:01.584Z,99684.93
2019-01-29T08:01:09.070Z,99693.52
2019-01-29T08:06:18.190Z,99696.11
2019-01-29T08:11:26.004Z,99698.62
2019-01-29T08:16:34.775Z,99697.45
2019-01-29T08:21:43.478Z,99710.61
2019-01-29T08:26:51.362Z,99719.91
2019-01-29T08:31:59.676Z,99724.83
2019-01-29T08:37:07.985Z,99733.66
2019-01-29T08:42:15.643Z,99748.25
2019-01-29T08:47:24.317Z,99751.50
2019-01-29T08:52:33.153Z,99751.67
2019-01-29T08:57:41.191Z,99754.42
2019-01-29T09:02:48.573Z,99767.14
2019-01-29T09:07:55.360Z,99771.08
2019-01-29T09:13:03.553Z,99761.81
2019-01-29T09:18:11.015Z,99767.84
2019-01-29T09:23:18.149Z,99772.30
2019-01-29T09:28:26.372Z,99769.14
2019-01-29T09:33:34.683Z,99775.58
2019-01-29T09:38:41.048Z,99781.98
2019-01-29T09:43:48.353Z,99794.45
2019-01-29T09:48:54.765Z,99795.30
2019-01-29T09:54:01.384Z,99800.51
2019-01-29T09:59:09.439Z,99797.63
2019-01-29T10:04:17.880Z,99808.22
2019-01-29T10:09:25.434Z,99815.39
2019-01-29T10:14:34.169Z,99809.69
2019-01-29T10:19:41.929Z,99812.98
2019-01-29T10:24:49.102Z,99812.61
2019-01-29T10:29:59.227Z,99804.02
2019-01-29T10:35:10.366Z,99809.52
2019-01-29T10:40:20.249Z,99808.30
2019-01-29T10:45:30.411Z,99798.53
2019-01-29T10:50:41.733Z,99807.30
2019-01-29T10:55:49.599Z,99804.59
2019-01-29T11:00:58.068Z,99802.24
2019-01-29T11:06:05.955Z,99800.22
2019-01-29T11:11:14.181Z,99801.84
2019-01-29T11:16:20.960Z,99811.09
2019-01-29T11:21:27.968Z,99806.80
2019-01-29T11:26:37.547Z,99803.23
2019-01-29T11:31:45.024Z,99812.91
2019-01-29T11:36:52.208Z,99802.31
2019-01-29T11:42:01.225Z,99801.69
2019-01-29T11:47:09.544Z,99806.81
2019-01-29T11:52:17.195Z,99814.89
2019-01-29T11:57:24.771Z,99818.56
2019-01-29T12:02:32.421Z,99814.59
2019-01-29T12:07:40.264Z,99814.16
2019-01-29T12:12:48.834Z,99813.38
2019-01-29T12:17:58.263Z,99824.09
2019-01-29T12:23:06.487Z,99824.13
2019-01-29T12:28:13.921Z,99824.80
2019-01-29T12:33:20.332Z,99816.84
2019-01-29T12:38:28.220Z,99812.76
2019-01-29T12:43:37.271Z,99819.05
2019-01-29T12:48:45.064Z,99812.77
2019-01-29T12:53:52.893Z,99806.98
2019-01-29T12:59:00.732Z,99804.57
2019-01-29T13:04:08.574Z,99812.00
2019-01-29T13:09:17.292Z,99809.27
2019-01-29T13:14:25.138Z,99798.09
2019-01-29T13:19:33.028Z,99794.42
2019-01-29T13:24:39.949Z,99798.64
2019-01-29T13:29:47.254Z,99810.34
2019-01-29T13:34:54.620Z,99811.94
2019-01-29T13:40:03.230Z,99800.25
2019-01-29T13:45:16.471Z,99801.87
2019-01-29T13:50:29.868Z,99806.23
2019-01-29T13:55:39.394Z,99808.28
2019-01-29T14:00:47.218Z,99805.56
2019-01-29T14:05:55.924Z,99810.09
2019-01-29T14:11:05.788Z,99804.78
2019-01-29T14:16:12.721Z,99804.92
2019-01-29T14:21:19.384Z,99808.86
2019-01-29T14:26:25.873Z,99807.14
2019-01-29T14:31:31.677Z,99798.22
2019-01-29T14:36:37.717Z,99793.77
2019-01-29T14:41:45.097Z,99796.19
2019-01-29T14:46:51.608Z,99800.06
2019-01-29T14:51:58.049Z,99803.58
2019-01-29T14:57:05.535Z,99797.48
2019-01-29T15:02:11.318Z,99799.52
2019-01-29T15:07:18.705Z,99799.30
2019-01-29T15:12:25.268Z,99799.93
2019-01-29T15:17:33.086Z,99800.34
2019-01-29T15:22:40.582Z,99805.13
2019-01-29T15:27:48.749Z,99811.16
2019-01-29T15:32:54.667Z,99811.33
2019-01-29T15:38:01.926Z,99808.05
2019-01-29T15:43:09.114Z,99806.89
2019-01-29T15:48:15.387Z,99802.87
2019-01-29T15:53:23.168Z,99799.09
2019-01-29T15:58:29.239Z,99797.85
2019-01-29T16:03:35.425Z,99797.34
2019-01-29T16:08:44.055Z,99802.92
2019-01-29T16:13:53.113Z,99810.67
2019-01-29T16:18:59.233Z,99812.66
2019-01-29T16:24:05.355Z,99812.42
2019-01-29T16:29:11.357Z,99820.21
2019-01-29T16:34:17.380Z,99822.81
2019-01-29T16:39:25.313Z,99819.68
2019-01-29T16:44:31.755Z,99824.05
2019-01-29T16:49:38.261Z,99821.56
2019-01-29T16:54:44.703Z,99814.42
2019-01-29T16:59:50.416Z,99819.41
2019-01-29T17:04:58.009Z,99823.05
2019-01-29T17:10:05.456Z,99815.16
2019-01-29T17:15:14.789Z,99821.70
2019-01-29T17:20:26.726Z,99817.94
2019-01-29T17:25:33.176Z,99814.74
2019-01-29T17:30:42.614Z,99819.23
2019-01-29T17:35:49.643Z,99824.77
2019-01-29T17:40:55.699Z,99825.02
2019-01-29T17:46:02.115Z,99828.41
2019-01-29T17:51:09.532Z,99833.34
2019-01-29T17:56:15.562Z,99828.95
2019-01-29T18:01:22.292Z,99825.64
2019-01-29T18:06:28.508Z,99821.30
2019-01-29T18:11:34.624Z,99823.92
2019-01-29T18:16:40.651Z,99821.52
2019-01-29T18:21:56.307Z,99825.66
2019-01-29T18:26:55.828Z,99819.13
2019-01-29T18:32:01.508Z,99810.45
2019-01-29T18:37:08.883Z,99819.14
2019-01-29T18:42:16.170Z,99814.34
2019-01-29T18:47:23.535Z,99818.08
2019-01-29T18:52:29.160Z,99809.84
2019-01-29T18:57:34.908Z,99800.78
2019-01-29T19:02:41.192Z,99814.58
2019-01-29T19:07:48.327Z,99801.55
2019-01-29T19:12:56.195Z,99804.84
2019-01-29T19:18:01.793Z,99804.59
2019-01-29T19:23:08.147Z,99794.80
2019-01-29T19:28:21.755Z,99795.45
2019-01-29T19:33:22.717Z,99796.26
2019-01-29T19:38:29.644Z,99794.34
2019-01-29T19:43:35.818Z,99788.03
2019-01-29T19:48:42.450Z,99791.48
2019-01-29T19:53:48.861Z,99789.67
2019-01-29T19:58:54.928Z,99789.13
2019-01-29T20:04:01.123Z,99790.53
2019-01-29T20:09:10.883Z,99786.97
2019-01-29T20:14:16.834Z,99784.80
2019-01-29T20:19:22.824Z,99784.35
2019-01-29T20:24:28.682Z,99784.81
2019-01-29T20:29:35.102Z,99778.23
2019-01-29T20:34:41.120Z,99787.32
2019-01-29T20:39:48.806Z,99784.41
2019-01-29T20:44:54.396Z,99785.36
2019-01-29T20:50:00.685Z,99782.39
2019-01-29T20:55:08.852Z,99775.58
2019-01-29T21:00:26.698Z,99771.95
2019-01-29T21:05:32.686Z,99769.80
2019-01-29T21:10:39.743Z,99779.58
2019-01-29T21:15:46.042Z,99773.56
2019-01-29T21:20:57.149Z,99770.57
2019-01-29T21:26:02.954Z,99766.62
2019-01-29T21:31:10.827Z,99760.39
2019-01-29T21:36:16.638Z,99758.52
2019-01-29T21:41:22.823Z,99759.81
2019-01-29T21:46:29.707Z,99759.48
2019-01-29T21:51:35.707Z,99758.95
2019-01-29T21:56:41.957Z,99753.56
2019-01-29T22:01:47.726Z,99758.67
2019-01-29T22:06:54.008Z,99753.64
2019-01-29T22:12:00.246Z,99748.67
2019-01-29T22:17:06.008Z,99740.38
2019-01-29T22:22:11.929Z,99738.20
2019-01-29T22:27:17.878Z,99723.83
2019-01-29T22:32:23.763Z,99718.99
2019-01-29T22:37:30.312Z,99712.11
2019-01-29T22:42:37.878Z,99715.66
2019-01-29T22:47:44.058Z,99713.28
2019-01-29T22:52:49.885Z,99710.02
2019-01-29T22:57:55.665Z,99711.06
2019-01-29T23:03:01.683Z,99717.36
2019-01-29T23:08:07.620Z,99707.90
2019-01-29T23:13:14.372Z,99705.61
2019-01-29T23:18:20.240Z,99698.08
2019-01-29T23:23:25.899Z,99694.50
2019-01-29T23:28:31.640Z,99695.99
2019-01-29T23:33:38.019Z,99695.92
2019-01-29T23:38:43.684Z,99687.55
2019-01-29T23:43:49.900Z,99688.66
2019-01-29T23:48:55.749Z,99690.64
2019-01-29T23:54:01.842Z,99677.49
2019-01-29T23:59:08.063Z,99678.84
